Observations Northwest Arkansas Weather.com - Nearby METAR Reports

Current Weather Conditions from Arkansas, Oklahoma, Missouri & Kansas

As well as selected U.S. cities associated with XNA Flights


KVBT - Bentonville Arkansas, Airport
Updated: Sat, Nov-Sat-2020 3:56am
Clear
Clear
 Wind from calm
Wind: Calm
Temperature: 30°F , -1°C
Dew Point: 28°F , -2°C
Humidity: 93%
Barometer: 30.28 inHg , 1025.4 hPa
Clouds: Clear
Visibility: 10 miles , 16 km
2020/11/28 09:56 KVBT 280956Z AUTO 00000KT 10SM CLR M01/M02 A3028 RMK AO2 SLP262 T10061017 FZRANO TSNO PNO $
KROG - Rogers Arkansas, Airport
Updated: Sat, Nov-Sat-2020 3:58am
Clear
Clear
 Wind from calm
Wind: Calm
Temperature: 34°F , 1°C
Dew Point: 28°F , -2°C
Humidity: 81%
Barometer: 30.26 inHg , 1024.7 hPa
Clouds: Clear
Visibility: 10 miles , 16 km
2020/11/28 09:58 KROG 280958Z 00000KT 10SM CLR 01/M02 A3026 RMK AO2 SLP251 T00061022 PNO $
KXNA - Northwest Arkansas Regional Airport
Updated: Sat, Nov-Sat-2020 3:53am
Clear
Clear
 Wind from NNW
Wind: NNW 5 mph , 7 km/h
Temperature: 32°F , 0°C
Wind Chill: 27°F , -3°C
Dew Point: 27°F , -3°C
Humidity: 80%
Barometer: 30.26 inHg , 1024.7 hPa
Clouds: Clear
Visibility: 10 miles , 16 km
2020/11/28 09:53 KXNA 280953Z AUTO 34004KT 10SM CLR 00/M03 A3026 RMK AO2 SLP250 T00001033
 
KSLG - Siloam Spring Arkansas, Airport
Updated: Sat, Nov-Sat-2020 3:56am
Clear
Clear
 Wind from calm
Wind: Calm
Temperature: 34°F , 1°C
Dew Point: 28°F , -2°C
Humidity: 81%
Barometer: 30.27 inHg , 1025.1 hPa
Clouds: Clear
Visibility: 10 miles , 16 km
2020/11/28 09:56 KSLG 280956Z AUTO 00000KT 10SM CLR 01/M02 A3027 RMK AO2 SLP255 T00061022 FZRANO TSNO
KASG - Springdale, Arkansas, Airport
Updated: Fri, Nov-Fri-2020 8:48pm
NOT Current
Clear
Clear
 Wind from NNE
Wind: NNE 7 mph , 11 km/h
Temperature: 45°F , 7°C
Wind Chill: 41°F , 5°C
Dew Point: 34°F , 1°C
Humidity: 66%
Barometer: 30.24 inHg , 1024 hPa
Clouds: Clear
Visibility: 10 miles , 16 km
2020/11/28 02:48 KASG 280248Z 02006KT 10SM CLR 07/01 A3024
KFYV - Fayetteville Arkansas, Airport
Updated: Sat, Nov-Sat-2020 3:53am
Clear
Clear
 Wind from calm
Wind: Calm
Temperature: 28°F , -2°C
Dew Point: 28°F , -2°C
Humidity: 100%
Barometer: 30.26 inHg , 1024.7 hPa
Clouds: Clear
Visibility: 10 miles , 16 km
2020/11/28 09:53 KFYV 280953Z AUTO 00000KT 10SM CLR M02/M02 A3026 RMK AO2 SLP250 T10171022
 
KHRO - Harrison, Arkansas
Updated: Sat, Nov-Sat-2020 3:53am
Clear
Clear
 Wind from W
Wind: W 3 mph , 6 km/h
Temperature: 34°F , 1°C
Dew Point: 27°F , -3°C
Humidity: 75%
Barometer: 30.24 inHg , 1024 hPa
Clouds: Clear
Visibility: 10 miles , 16 km
2020/11/28 09:53 KHRO 280953Z AUTO 27003KT 10SM CLR 01/M03 A3024 RMK AO2 SLP244 T00061028
KFLP - Flippin, Arkansas
Updated: Sat, Nov-Sat-2020 3:56am
Clear
Clear
 Wind from calm
Wind: Calm
Temperature: 32°F , 0°C
Dew Point: 28°F , -2°C
Humidity: 87%
Barometer: 30.27 inHg , 1025.1 hPa
Clouds: Clear
Visibility: 10 miles , 16 km
2020/11/28 09:56 KFLP 280956Z AUTO 00000KT 10SM CLR 00/M02 A3027 RMK AO2 SLP250 T00001017 FZRANO
KBPK - Mountain Home, Arkansas
Updated: Sat, Nov-Sat-2020 3:53am
Clear
Clear
 Wind from calm
Wind: Calm
Temperature: 34°F , 1°C
Dew Point: 30°F , -1°C
Humidity: 87%
Barometer: 30.25 inHg , 1024.4 hPa
Clouds: Clear
Visibility: 10 miles , 16 km
2020/11/28 09:53 KBPK 280953Z AUTO 00000KT 10SM CLR 01/M01 A3025 RMK AO2 SLP243 T00111011
 
KCCA - Clinton, Arkansas
Updated: Sat, Nov-Sat-2020 4:15am
Clear
Clear
 Wind from calm
Wind: Calm
Temperature: 34°F , 1°C
Dew Point: 32°F , 0°C
Humidity: 93%
Barometer: 30.25 inHg , 1024.4 hPa
Clouds: Clear
Visibility: 10 miles , 16 km
2020/11/28 10:15 KCCA 281015Z AUTO 00000KT 10SM CLR 01/00 A3025 RMK AO2
KRUE - Russellville, Arkansas
Updated: Sat, Nov-Sat-2020 3:53am
Clear
Clear
 Wind from calm
Wind: Calm
Temperature: 34°F , 1°C
Dew Point: 32°F , 0°C
Humidity: 93%
Barometer: 30.24 inHg , 1024 hPa
Clouds: Clear
Visibility: 10 miles , 16 km
2020/11/28 09:53 KRUE 280953Z AUTO 00000KT 10SM CLR 01/00 A3024 RMK AO2 SLP236 T00110000
KBVX - Batesville, Arkansa
Updated: Sat, Nov-Sat-2020 3:56am
Clear
Clear
 Wind from NW
Wind: NW 5 mph , 7 km/h
Temperature: 39°F , 4°C
Wind Chill: 35°F , 2°C
Dew Point: 32°F , 0°C
Humidity: 75%
Barometer: 30.26 inHg , 1024.7 hPa
Clouds: Clear
Visibility: 10 miles , 16 km
2020/11/28 09:56 KBVX 280956Z AUTO 32004KT 10SM CLR 04/00 A3026 RMK AO2 SLP248 T00390000
 
KBYH - Blytheville, Arkansas
Updated: Tue, Nov-Tue-2020 3:58pm
NOT Current
Overcast
Overcast
 Wind from SSE
Wind: SSE 8 mph , 13 km/h, Gust: 17 mph , 28 km/h
Temperature: 59°F , 15°C
Dew Point: 36°F , 2°C
Humidity: 42%
Barometer: 30.00 inHg , 1015.9 hPa
Clouds: Overcast
Visibility: 10 miles , 16 km
Cloud details: Overcast 25000 ft
2020/11/24 21:58 KBYH 242158Z 15007G15KT 10SM OVC250 15/02 A3000 RMK LAST
KM19 - Newport, Arkansas
Updated: Sat, Nov-Sat-2020 3:56am
Clear
Clear
 Wind from N
Wind: N 8 mph , 13 km/h
Temperature: 37°F , 3°C
Wind Chill: 31°F , -1°C
Dew Point: 34°F , 1°C
Humidity: 87%
Barometer: 30.25 inHg , 1024.4 hPa
Clouds: Clear
Visibility: 10 miles , 16 km
2020/11/28 09:56 KM19 280956Z AUTO 35007KT 10SM CLR 03/01 A3025 RMK AO2 SLP244 T00280011
KSRC - Searcy, Arkansas
Updated: Sat, Nov-Sat-2020 3:56am
Clear
Clear
 Wind from N
Wind: N 5 mph , 7 km/h
Temperature: 41°F , 5°C
Wind Chill: 38°F , 3°C
Dew Point: 34°F , 1°C
Humidity: 76%
Barometer: 30.25 inHg , 1024.4 hPa
Clouds: Clear
Visibility: 10 miles , 16 km
2020/11/28 09:56 KSRC 280956Z AUTO 01004KT 10SM CLR 05/01 A3025 RMK AO2 SLP243 T00500011
 
KARG - Walnut Ridge, Arkansas
Updated: Sat, Nov-Sat-2020 3:56am
Clear
Clear
 Wind from NNW
Wind: NNW 3 mph , 6 km/h
Temperature: 37°F , 3°C
Dew Point: 34°F , 1°C
Humidity: 87%
Barometer: 30.25 inHg , 1024.4 hPa
Clouds: Clear
Visibility: 10 miles , 16 km
2020/11/28 09:56 KARG 280956Z AUTO 33003KT 10SM CLR 03/01 A3025 RMK AO2 SLP247 T00330011
KJBR - Jonesboro, Arkansas
Updated: Sat, Nov-Sat-2020 3:53am
Clear
Clear
 Wind from N
Wind: N 6 mph , 9 km/h
Temperature: 43°F , 6°C
Wind Chill: 39°F , 4°C
Dew Point: 32°F , 0°C
Humidity: 66%
Barometer: 30.25 inHg , 1024.4 hPa
Clouds: Clear
Visibility: 10 miles , 16 km
2020/11/28 09:53 KJBR 280953Z AUTO 01005KT 10SM CLR 06/00 A3025 RMK AO2 SLP243 T00560000 TSNO $
K4M9 - Corning, Arkansas
Updated: Sat, Nov-Sat-2020 4:15am
Mist, Clear
Mist, Clear
 Wind from calm
Wind: Calm
Temperature: 37°F , 3°C
Dew Point: 34°F , 1°C
Humidity: 87%
Barometer: 30.26 inHg , 1024.7 hPa
Summary: Mist
Clouds: Clear
Visibility: 2 1/2 miles , 4 km
2020/11/28 10:15 K4M9 281015Z AUTO 00000KT 2 1/2SM BR CLR 03/01 A3026 RMK AO2 PWINO
 
KLRF - Little Rock Afb, Arkansas
Updated: Sat, Nov-Sat-2020 3:56am
Clear
Clear
 Wind from NNE
Wind: NNE 5 mph , 7 km/h
Temperature: 43°F , 6°C
Wind Chill: 40°F , 4°C
Dew Point: 34°F , 1°C
Humidity: 71%
Barometer: 30.23 inHg , 1023.7 hPa
Clouds: Clear
Visibility: 10 miles , 16 km
2020/11/28 09:56 KLRF 280956Z AUTO 03004KT 10SM CLR 06/01 A3023 RMK AO2 SLP240 T00570007 $
KLIT - Little Rock, Arkansas
Updated: Sat, Nov-Sat-2020 3:53am
Clear
Clear
 Wind from NNE
Wind: NNE 8 mph , 13 km/h
Temperature: 43°F , 6°C
Wind Chill: 38°F , 3°C
Dew Point: 36°F , 2°C
Humidity: 76%
Barometer: 30.23 inHg , 1023.7 hPa
Clouds: Clear
Visibility: 10 miles , 16 km
2020/11/28 09:53 KLIT 280953Z 02007KT 10SM CLR 06/02 A3023 RMK AO2 SLP239 T00610017
KSGT - Stuttgart, Arkansas
Updated: Sat, Nov-Sat-2020 3:56am
Clear
Clear
 Wind from NNE
Wind: NNE 13 mph , 20 km/h
Temperature: 45°F , 7°C
Wind Chill: 39°F , 4°C
Dew Point: 39°F , 4°C
Humidity: 81%
Barometer: 30.22 inHg , 1023.4 hPa
Clouds: Clear
Visibility: 10 miles , 16 km
2020/11/28 09:56 KSGT 280956Z AUTO 02011KT 10SM CLR 07/04 A3022 RMK AO2 SLP233 T00670044
 
KAWM - West Memphis, Arkansas
Updated: Sat, Nov-Sat-2020 3:53am
Clear
Clear
 Wind from N
Wind: N 8 mph , 13 km/h
Temperature: 43°F , 6°C
Wind Chill: 38°F , 3°C
Dew Point: 37°F , 3°C
Humidity: 81%
Barometer: 30.21 inHg , 1023 hPa
Clouds: Clear
Visibility: 10 miles , 16 km
2020/11/28 09:53 KAWM 280953Z AUTO 01007KT 10SM CLR 06/03 A3021 RMK AO2 SLP228 T00610033
KFSM - Fort Smith, Arkansas
Updated: Sat, Nov-Sat-2020 3:53am
Clear
Clear
 Wind from calm
Wind: Calm
Temperature: 39°F , 4°C
Dew Point: 34°F , 1°C
Humidity: 81%
Barometer: 30.24 inHg , 1024 hPa
Clouds: Clear
Visibility: 10 miles , 16 km
2020/11/28 09:53 KFSM 280953Z AUTO 00000KT 10SM CLR 04/01 A3024 RMK AO2 SLP242 T00390011
KMWT - Mount Ida, Arkansas
Updated: Sat, Nov-Sat-2020 3:53am
Clear
Clear
 Wind from calm
Wind: Calm
Temperature: 37°F , 3°C
Dew Point: 36°F , 2°C
Humidity: 93%
Barometer: 30.20 inHg , 1022.7 hPa
Clouds: Clear
Visibility: 10 miles , 16 km
2020/11/28 09:53 KMWT 280953Z AUTO 00000KT 10SM CLR 03/02 A3020 RMK AO2 SLP227 T00330022
 
KMEZ - Mena, Arkansas
Updated: Sat, Nov-Sat-2020 3:55am
Clear
Clear
 Wind from calm
Wind: Calm
Temperature: 37°F , 3°C
Dew Point: 37°F , 3°C
Humidity: 100%
Barometer: 30.21 inHg , 1023 hPa
Clouds: Clear
Visibility: 10 miles , 16 km
2020/11/28 09:55 KMEZ 280955Z AUTO 00000KT 10SM CLR 03/03 A3021 RMK AO2
KHOT - Hot Springs, Arkansas
Updated: Sat, Nov-Sat-2020 3:53am
Clear
Clear
 Wind from ENE
Wind: ENE 7 mph , 11 km/h
Temperature: 46°F , 8°C
Wind Chill: 42°F , 6°C
Dew Point: 36°F , 2°C
Humidity: 66%
Barometer: 30.23 inHg , 1023.7 hPa
Clouds: Clear
Visibility: 10 miles , 16 km
2020/11/28 09:53 KHOT 280953Z AUTO 07006KT 10SM CLR 08/02 A3023 RMK AO2 SLP233 T00780017
KADF - Arkadelphia, Arkansas
Updated: Sat, Nov-Sat-2020 3:56am
Clear
Clear
 Wind from NNE
Wind: NNE 6 mph , 9 km/h
Temperature: 46°F , 8°C
Wind Chill: 43°F , 6°C
Dew Point: 39°F , 4°C
Humidity: 76%
Barometer: 30.23 inHg , 1023.7 hPa
Clouds: Clear
Visibility: 10 miles , 16 km
2020/11/28 09:56 KADF 280956Z AUTO 03005KT 10SM CLR 08/04 A3023 RMK AO2 SLP234 T00780039
 
KSGT - Stuttgart, Arkansas
Updated: Sat, Nov-Sat-2020 3:56am
Clear
Clear
 Wind from NNE
Wind: NNE 13 mph , 20 km/h
Temperature: 45°F , 7°C
Wind Chill: 39°F , 4°C
Dew Point: 39°F , 4°C
Humidity: 81%
Barometer: 30.22 inHg , 1023.4 hPa
Clouds: Clear
Visibility: 10 miles , 16 km
2020/11/28 09:56 KSGT 280956Z AUTO 02011KT 10SM CLR 07/04 A3022 RMK AO2 SLP233 T00670044
KPBF - Pine Bluff, Arkansas
Updated: Sat, Nov-Sat-2020 3:53am
Clear
Clear
 Wind from N
Wind: N 10 mph , 17 km/h
Temperature: 46°F , 8°C
Wind Chill: 41°F , 5°C
Dew Point: 39°F , 4°C
Humidity: 76%
Barometer: 30.20 inHg , 1022.7 hPa
Clouds: Clear
Visibility: 10 miles , 16 km
2020/11/28 09:53 KPBF 280953Z AUTO 01009KT 10SM CLR 08/04 A3020 RMK AO2 SLP227 T00780039
KSRC - Searcy, Arkansas
Updated: Sat, Nov-Sat-2020 3:56am
Clear
Clear
 Wind from N
Wind: N 5 mph , 7 km/h
Temperature: 41°F , 5°C
Wind Chill: 38°F , 3°C
Dew Point: 34°F , 1°C
Humidity: 76%
Barometer: 30.25 inHg , 1024.4 hPa
Clouds: Clear
Visibility: 10 miles , 16 km
2020/11/28 09:56 KSRC 280956Z AUTO 01004KT 10SM CLR 05/01 A3025 RMK AO2 SLP243 T00500011
 
KRUE - Russellville, Arkansas
Updated: Sat, Nov-Sat-2020 3:53am
Clear
Clear
 Wind from calm
Wind: Calm
Temperature: 34°F , 1°C
Dew Point: 32°F , 0°C
Humidity: 93%
Barometer: 30.24 inHg , 1024 hPa
Clouds: Clear
Visibility: 10 miles , 16 km
2020/11/28 09:53 KRUE 280953Z AUTO 00000KT 10SM CLR 01/00 A3024 RMK AO2 SLP236 T00110000
KCCA - Clinton, Arkansas
Updated: Sat, Nov-Sat-2020 4:15am
Clear
Clear
 Wind from calm
Wind: Calm
Temperature: 34°F , 1°C
Dew Point: 32°F , 0°C
Humidity: 93%
Barometer: 30.25 inHg , 1024.4 hPa
Clouds: Clear
Visibility: 10 miles , 16 km
2020/11/28 10:15 KCCA 281015Z AUTO 00000KT 10SM CLR 01/00 A3025 RMK AO2
KLLQ - Monticello, Arkansas
Updated: Sat, Nov-Sat-2020 3:53am
Clear
Clear
 Wind from varies
Wind: varies 5 mph , 7 km/h
Temperature: 48°F , 9°C
Wind Chill: 46°F , 8°C
Dew Point: 45°F , 7°C
Humidity: 87%
Barometer: 30.18 inHg , 1022 hPa
Clouds: Clear
Visibility: 10 miles , 16 km
2020/11/28 09:53 KLLQ 280953Z AUTO VRB04KT 10SM CLR 09/07 A3018 RMK AO2 SLP221 T00940072
 
KCDH - Camden, Arkansas
Updated: Sat, Nov-Sat-2020 4:15am
Mostly cloudy
Mostly cloudy
 Wind from N
Wind: N 6 mph , 9 km/h
Temperature: 46°F , 8°C
Wind Chill: 43°F , 6°C
Dew Point: 43°F , 6°C
Humidity: 87%
Barometer: 30.20 inHg , 1022.7 hPa
Clouds: Mostly cloudy
Visibility: 10 miles , 16 km
Cloud details: Mostly cloudy 4100 ft
2020/11/28 10:15 KCDH 281015Z AUTO 01005KT 10SM BKN041 08/06 A3020 RMK AO2
KM19 - Newport, Arkansas
Updated: Sat, Nov-Sat-2020 3:56am
Clear
Clear
 Wind from N
Wind: N 8 mph , 13 km/h
Temperature: 37°F , 3°C
Wind Chill: 31°F , -1°C
Dew Point: 34°F , 1°C
Humidity: 87%
Barometer: 30.25 inHg , 1024.4 hPa
Clouds: Clear
Visibility: 10 miles , 16 km
2020/11/28 09:56 KM19 280956Z AUTO 35007KT 10SM CLR 03/01 A3025 RMK AO2 SLP244 T00280011
KDEQ - De Queen, Arkansas
Updated: Sat, Nov-Sat-2020 3:53am
Clear
Clear
 Wind from ENE
Wind: ENE 3 mph , 6 km/h
Temperature: 43°F , 6°C
Dew Point: 41°F , 5°C
Humidity: 93%
Barometer: 30.19 inHg , 1022.4 hPa
Clouds: Clear
Visibility: 10 miles , 16 km
2020/11/28 09:53 KDEQ 280953Z AUTO 07003KT 10SM CLR 06/05 A3019 RMK AO1 SLP220 T00560050 $
 
KTXK - Texarkana, Arkansas
Updated: Sat, Nov-Sat-2020 3:53am
Clear
Clear
 Wind from NE
Wind: NE 9 mph , 15 km/h
Temperature: 52°F , 11°C
Dew Point: 41°F , 5°C
Humidity: 67%
Barometer: 30.19 inHg , 1022.4 hPa
Clouds: Clear
Visibility: 10 miles , 16 km
2020/11/28 09:53 KTXK 280953Z AUTO 05008KT 10SM CLR 11/05 A3019 RMK AO2 SLP222 T01060050
KELD - El Dorado, Arkansas
Updated: Sat, Nov-Sat-2020 3:53am
Mostly cloudy
Mostly cloudy
 Wind from N
Wind: N 5 mph , 7 km/h
Temperature: 50°F , 10°C
Wind Chill: 48°F , 9°C
Dew Point: 43°F , 6°C
Humidity: 76%
Barometer: 30.19 inHg , 1022.4 hPa
Clouds: Mostly cloudy
Visibility: 10 miles , 16 km
Cloud details: Mostly cloudy 4600 ft
2020/11/28 09:53 KELD 280953Z AUTO 36004KT 10SM BKN046 10/06 A3019 RMK AO2 SLP222 T01000056
KCSM - Clinton, Oklahoma
Updated: Sat, Nov-Sat-2020 3:53am
Clear
Clear
 Wind from N
Wind: N 9 mph , 15 km/h
Temperature: 34°F , 1°C
Wind Chill: 27°F , -3°C
Dew Point: 30°F , -1°C
Humidity: 87%
Barometer: 30.24 inHg , 1024 hPa
Clouds: Clear
Visibility: 10 miles , 16 km
2020/11/28 09:53 KCSM 280953Z AUTO 01008KT 10SM CLR 01/M01 A3024 RMK AO2 SLP243 T00111011 $
 
KHBR - Hobart, Oklahoma
Updated: Sat, Nov-Sat-2020 3:53am
Clear
Clear
 Wind from ENE
Wind: ENE 14 mph , 22 km/h
Temperature: 41°F , 5°C
Wind Chill: 33°F , 1°C
Dew Point: 30°F , -1°C
Humidity: 66%
Barometer: 30.22 inHg , 1023.4 hPa
Clouds: Clear
Visibility: 10 miles , 16 km
2020/11/28 09:53 KHBR 280953Z AUTO 06012KT 10SM CLR 05/M01 A3022 RMK AO2 SLP234 T00501006
KLTS - Altus Afb, Oklahoma
Updated: Sat, Nov-Sat-2020 3:56am
Clear
Clear
 Wind from NNE
Wind: NNE 13 mph , 20 km/h
Temperature: 36°F , 2°C
Wind Chill: 27°F , -3°C
Barometer: 30.21 inHg , 1023 hPa
Clouds: Clear
Visibility: 10 miles , 16 km
2020/11/28 09:56 KLTS 280956Z AUTO 03011KT 10SM CLR 02/ A3021 RMK AO2 SLP233 $
KFSI - Fort Sill, Oklahoma
Updated: Sat, Nov-Sat-2020 3:56am
Clear
Clear
 Wind from NNE
Wind: NNE 10 mph , 17 km/h
Temperature: 39°F , 4°C
Wind Chill: 32°F , 0°C
Dew Point: 32°F , 0°C
Humidity: 75%
Barometer: 30.21 inHg , 1023 hPa
Clouds: Clear
Visibility: 10 miles , 16 km
2020/11/28 09:56 KFSI 280956Z AUTO 02009KT 10SM CLR 04/00 A3021 RMK AO2 SLP230 T00420002 $
 
KGAG - Gage, Oklahoma
Updated: Sat, Nov-Sat-2020 3:53am
Clear
Clear
 Wind from S
Wind: S 3 mph , 6 km/h
Temperature: 25°F , -4°C
Dew Point: 21°F , -6°C
Humidity: 86%
Barometer: 30.25 inHg , 1024.4 hPa
Clouds: Clear
Visibility: 10 miles , 16 km
2020/11/28 09:53 KGAG 280953Z AUTO 17003KT 10SM CLR M04/M06 A3025 RMK AO2 SLP251 T10441056 $
KWWR - Woodward, Oklahoma
Updated: Sat, Nov-Sat-2020 3:55am
Clear
Clear
 Wind from calm
Wind: Calm
Temperature: 28°F , -2°C
Dew Point: 27°F , -3°C
Humidity: 93%
Barometer: 30.28 inHg , 1025.4 hPa
Clouds: Clear
Visibility: 10 miles , 16 km
2020/11/28 09:55 KWWR 280955Z AUTO 00000KT 10SM CLR M02/M03 A3028 RMK AO2
KLAW - Lawton, Oklahoma
Updated: Sat, Nov-Sat-2020 3:53am
Clear
Clear
 Wind from NNE
Wind: NNE 12 mph , 19 km/h
Temperature: 43°F , 6°C
Wind Chill: 37°F , 3°C
Dew Point: 30°F , -1°C
Humidity: 61%
Barometer: 30.23 inHg , 1023.7 hPa
Clouds: Clear
Visibility: 10 miles , 16 km
2020/11/28 09:53 KLAW 280953Z AUTO 03010KT 10SM CLR 06/M01 A3023 RMK AO2 SLP237 T00561006
 
KOKC - Oklahoma City, Oklahoma
Updated: Sat, Nov-Sat-2020 3:52am
Few Clouds
Few Clouds
 Wind from N
Wind: N 7 mph , 11 km/h
Temperature: 34°F , 1°C
Wind Chill: 28°F , -2°C
Dew Point: 28°F , -2°C
Humidity: 81%
Barometer: 30.26 inHg , 1024.7 hPa
Clouds: Few Clouds
Visibility: 10 miles , 16 km
Cloud details: Few Clouds 13000 ft
2020/11/28 09:52 KOKC 280952Z 36006KT 10SM FEW130 01/M02 A3026 RMK AO2 SLP248 T00111022
KEND - Enid/Vance Afb, Oklahoma
Updated: Sat, Nov-Sat-2020 3:56am
Clear
Clear
 Wind from N
Wind: N 5 mph , 7 km/h
Temperature: 30°F , -1°C
Wind Chill: 25°F , -4°C
Dew Point: 30°F , -1°C
Humidity: 100%
Barometer: 30.26 inHg , 1024.7 hPa
Clouds: Clear
Visibility: 10 miles , 16 km
2020/11/28 09:56 KEND 280956Z AUTO 01004KT 10SM CLR M01/M01 A3026 RMK AO2 SLP254 T10141014 $
KFDR - Frederick/Altus, Oklahoma
Updated: Sat, Nov-Sat-2020 3:53am
Clear
Clear
 Wind from NNE
Wind: NNE 10 mph , 17 km/h
Temperature: 39°F , 4°C
Wind Chill: 32°F , 0°C
Dew Point: 30°F , -1°C
Humidity: 70%
Barometer: 30.18 inHg , 1022 hPa
Clouds: Clear
Visibility: 10 miles , 16 km
2020/11/28 09:53 KFDR 280953Z AUTO 02009KT 10SM CLR 04/M01 A3018 RMK AO2 SLP215 T00391006
 
KOUN - Norman, Oklahoma
Updated: Sat, Nov-Sat-2020 3:55am
Clear
Clear
 Wind from N
Wind: N 8 mph , 13 km/h
Temperature: 36°F , 2°C
Wind Chill: 30°F , -1°C
Dew Point: 28°F , -2°C
Humidity: 75%
Barometer: 30.24 inHg , 1024 hPa
Clouds: Clear
Visibility: 10 miles , 16 km
2020/11/28 09:55 KOUN 280955Z AUTO 01007KT 10SM CLR 02/M02 A3024 RMK AO2 T00161017
KTIK - Tinker Afb, Oklahoma
Updated: Sat, Nov-Sat-2020 3:56am
Clear
Clear
 Wind from N
Wind: N 6 mph , 9 km/h
Temperature: 36°F , 2°C
Wind Chill: 31°F , -1°C
Dew Point: 28°F , -2°C
Humidity: 75%
Barometer: 30.25 inHg , 1024.4 hPa
Clouds: Clear
Visibility: 10 miles , 16 km
2020/11/28 09:56 KTIK 280956Z AUTO 35005KT 10SM CLR 02/M02 A3025 RMK AO2 SLP254 T00151021
KGOK - Guthrie, Oklahoma
Updated: Sat, Nov-Sat-2020 3:53am
Clear
Clear
 Wind from NNE
Wind: NNE 5 mph , 7 km/h
Temperature: 34°F , 1°C
Wind Chill: 29°F , -2°C
Dew Point: 28°F , -2°C
Humidity: 81%
Barometer: 30.27 inHg , 1025.1 hPa
Clouds: Clear
Visibility: 10 miles , 16 km
2020/11/28 09:53 KGOK 280953Z AUTO 02004KT 10SM CLR 01/M02 A3027 RMK AO2 SLP257 T00061017
 
KSNL - Shawnee, Oklahoma
Updated: Sat, Nov-Sat-2020 3:55am
Clear
Clear
 Wind from N
Wind: N 6 mph , 9 km/h
Temperature: 34°F , 1°C
Wind Chill: 29°F , -2°C
Dew Point: 28°F , -2°C
Humidity: 81%
Barometer: 30.26 inHg , 1024.7 hPa
Clouds: Clear
Visibility: 10 miles , 16 km
2020/11/28 09:55 KSNL 280955Z AUTO 01005KT 10SM CLR 01/M02 A3026 RMK AO2 T00071020
KCQB - Chandler, Oklahoma
Updated: Sat, Nov-Sat-2020 3:55am
Clear
Clear
 Wind from N
Wind: N 3 mph , 6 km/h
Temperature: 36°F , 2°C
Dew Point: 30°F , -1°C
Humidity: 81%
Barometer: 30.27 inHg , 1025.1 hPa
Clouds: Clear
Visibility: 10 miles , 16 km
2020/11/28 09:55 KCQB 280955Z AUTO 01003KT 10SM CLR 02/M01 A3027 RMK AO2 T00231014
KPVJ - Pauls Valley, Oklahoma
Updated: Sat, Nov-Sat-2020 3:55am
Clear
Clear
 Wind from NNE
Wind: NNE 9 mph , 15 km/h
Temperature: 39°F , 4°C
Wind Chill: 33°F , 1°C
Dew Point: 32°F , 0°C
Humidity: 75%
Barometer: 30.23 inHg , 1023.7 hPa
Clouds: Clear
Visibility: 10 miles , 16 km
2020/11/28 09:55 KPVJ 280955Z AUTO 02008KT 10SM CLR 04/00 A3023 RMK AO2 T00401002
 
KEND - Enid/Vance Afb, Oklahoma
Updated: Sat, Nov-Sat-2020 3:56am
Clear
Clear
 Wind from N
Wind: N 5 mph , 7 km/h
Temperature: 30°F , -1°C
Wind Chill: 25°F , -4°C
Dew Point: 30°F , -1°C
Humidity: 100%
Barometer: 30.26 inHg , 1024.7 hPa
Clouds: Clear
Visibility: 10 miles , 16 km
2020/11/28 09:56 KEND 280956Z AUTO 01004KT 10SM CLR M01/M01 A3026 RMK AO2 SLP254 T10141014 $
KSWO - Stillwater, Oklahoma
Updated: Sat, Nov-Sat-2020 3:53am
Clear
Clear
 Wind from N
Wind: N 3 mph , 6 km/h
Temperature: 36°F , 2°C
Dew Point: 28°F , -2°C
Humidity: 75%
Barometer: 30.27 inHg , 1025.1 hPa
Clouds: Clear
Visibility: 10 miles , 16 km
2020/11/28 09:53 KSWO 280953Z 01003KT 10SM CLR 02/M02 A3027 RMK AO2 SLP251 T00171022
KFSI - Fort Sill, Oklahoma
Updated: Sat, Nov-Sat-2020 3:56am
Clear
Clear
 Wind from NNE
Wind: NNE 10 mph , 17 km/h
Temperature: 39°F , 4°C
Wind Chill: 32°F , 0°C
Dew Point: 32°F , 0°C
Humidity: 75%
Barometer: 30.21 inHg , 1023 hPa
Clouds: Clear
Visibility: 10 miles , 16 km
2020/11/28 09:56 KFSI 280956Z AUTO 02009KT 10SM CLR 04/00 A3021 RMK AO2 SLP230 T00420002 $
 
KDUC - Duncan, Oklahoma
Updated: Sat, Nov-Sat-2020 3:55am
Clear
Clear
 Wind from NE
Wind: NE 8 mph , 13 km/h
Temperature: 43°F , 6°C
Wind Chill: 38°F , 3°C
Dew Point: 30°F , -1°C
Humidity: 61%
Barometer: 30.24 inHg , 1024 hPa
Clouds: Clear
Visibility: 10 miles , 16 km
2020/11/28 09:55 KDUC 280955Z AUTO 05007KT 10SM CLR 06/M01 A3024 RMK AO2 T00571007
KOKM - Okmulgee, Oklahoma
Updated: Sat, Nov-Sat-2020 3:55am
Clear
Clear
 Wind from N
Wind: N 8 mph , 13 km/h
Temperature: 36°F , 2°C
Wind Chill: 30°F , -1°C
Dew Point: 32°F , 0°C
Humidity: 87%
Barometer: 30.26 inHg , 1024.7 hPa
Clouds: Clear
Visibility: 10 miles , 16 km
2020/11/28 09:55 KOKM 280955Z AUTO 01007KT 10SM CLR 02/00 A3026 RMK AO2 T00201003
KMLC - Mcalester, Oklahoma
Updated: Sat, Nov-Sat-2020 3:53am
Partly cloudy
Partly cloudy
 Wind from N
Wind: N 3 mph , 6 km/h
Temperature: 36°F , 2°C
Dew Point: 34°F , 1°C
Humidity: 93%
Barometer: 30.24 inHg , 1024 hPa
Clouds: Partly cloudy
Visibility: 10 miles , 16 km
Cloud details: Few Clouds 7500 ft
Partly cloudy 10000 ft
2020/11/28 09:53 KMLC 280953Z AUTO 01003KT 10SM FEW075 SCT100 02/01 A3024 RMK AO2 SLP240 T00220006
 
KMKO - Muskogee, Oklahoma
Updated: Sat, Nov-Sat-2020 3:53am
Clear
Clear
 Wind from N
Wind: N 12 mph , 19 km/h
Temperature: 36°F , 2°C
Wind Chill: 28°F , -2°C
Dew Point: 30°F , -1°C
Humidity: 81%
Barometer: 30.26 inHg , 1024.7 hPa
Clouds: Clear
Visibility: 10 miles , 16 km
2020/11/28 09:53 KMKO 280953Z AUTO 01010KT 10SM CLR 02/M01 A3026 RMK AO2 SLP247 T00221006
KRVS - Tulsa, Oklahoma
Updated: Sat, Nov-Sat-2020 3:53am
Clear
Clear
 Wind from N
Wind: N 3 mph , 6 km/h
Temperature: 36°F , 2°C
Dew Point: 32°F , 0°C
Humidity: 87%
Barometer: 30.27 inHg , 1025.1 hPa
Clouds: Clear
Visibility: 10 miles , 16 km
2020/11/28 09:53 KRVS 280953Z AUTO 36003KT 10SM CLR 02/00 A3027 RMK AO2 SLP258 T00220000
KGZL - Stigler, Oklahoma
Updated: Sat, Nov-Sat-2020 4:15am
Clear
Clear
 Wind from calm
Wind: Calm
Barometer: 30.24 inHg , 1024 hPa
Clouds: Clear
Visibility: 10 miles , 16 km
2020/11/28 10:15 KGZL 281015Z AUTO 00000KT 10SM CLR A3024 RMK AO2
 
KADH - Ada, Oklahoma
Updated: Sat, Nov-Sat-2020 3:55am
Clear
Clear
 Wind from NNE
Wind: NNE 10 mph , 17 km/h
Temperature: 37°F , 3°C
Wind Chill: 30°F , -1°C
Dew Point: 32°F , 0°C
Humidity: 81%
Barometer: 30.24 inHg , 1024 hPa
Clouds: Clear
Visibility: 10 miles , 16 km
2020/11/28 09:55 KADH 280955Z AUTO 02009KT 10SM CLR 03/00 A3024 RMK AO2
KAQR - Atoka, Oklahoma
Updated: Sat, Nov-Sat-2020 3:55am

 
2020/11/28 09:55 KAQR 280955Z AUTO RMK AO2 PWINO PNO TSNO
KJSV - Sallisaw, Oklahoma
Updated: Sat, Nov-Sat-2020 3:55am
Clear
Clear
 Wind from calm
Wind: Calm
Temperature: 34°F , 1°C
Dew Point: 32°F , 0°C
Humidity: 93%
Barometer: 30.25 inHg , 1024.4 hPa
Clouds: Clear
Visibility: 10 miles , 16 km
2020/11/28 09:55 KJSV 280955Z AUTO 00000KT 10SM CLR 01/00 A3025 RMK AO2
 
KTQH - Tahlequah, Oklahoma
Updated: Sat, Nov-Sat-2020 3:55am
Clear
Clear
 Wind from calm
Wind: Calm
Temperature: 34°F , 1°C
Dew Point: 30°F , -1°C
Humidity: 87%
Barometer: 30.26 inHg , 1024.7 hPa
Clouds: Clear
Visibility: 10 miles , 16 km
2020/11/28 09:55 KTQH 280955Z AUTO 00000KT 10SM CLR 01/M01 A3026 RMK AO2
KGCM - Claremore, Oklahoma
Updated: Sat, Nov-Sat-2020 3:55am
Clear
Clear
 Wind from NE
Wind: NE 6 mph , 9 km/h
Temperature: 32°F , 0°C
Wind Chill: 26°F , -3°C
Dew Point: 28°F , -2°C
Humidity: 87%
Barometer: 30.29 inHg , 1025.7 hPa
Clouds: Clear
Visibility: 10 miles , 16 km
2020/11/28 09:55 KGCM 280955Z AUTO 04005KT 10SM CLR 00/M02 A3029 RMK AO2
KRKR - Poteau, Oklahoma
Updated: Sat, Nov-Sat-2020 3:55am
Clear
Clear
 Wind from N
Wind: N 10 mph , 17 km/h
Temperature: 41°F , 5°C
Wind Chill: 35°F , 2°C
Dew Point: 34°F , 1°C
Humidity: 76%
Barometer: 30.24 inHg , 1024 hPa
Clouds: Clear
Visibility: 10 miles , 16 km
2020/11/28 09:55 KRKR 280955Z AUTO 36009KT 10SM CLR 05/01 A3024 RMK AO2
 
KGMJ - Grove, Oklahoma
Updated: Sat, Nov-Sat-2020 3:55am
Clear
Clear
 Wind from calm
Wind: Calm
Temperature: 28°F , -2°C
Dew Point: 27°F , -3°C
Humidity: 93%
Barometer: 30.29 inHg , 1025.7 hPa
Clouds: Clear
Visibility: 10 miles , 16 km
2020/11/28 09:55 KGMJ 280955Z AUTO 00000KT 10SM CLR M02/M03 A3029 RMK AO2
K4O4 - Idabel, Oklahoma
Updated: Sat, Nov-Sat-2020 3:55am
Clear
Clear
 Wind from calm
Wind: Calm
Temperature: 41°F , 5°C
Dew Point: 41°F , 5°C
Humidity: 100%
Barometer: 30.20 inHg , 1022.7 hPa
Clouds: Clear
Visibility: 10 miles , 16 km
2020/11/28 09:55 K4O4 280955Z AUTO 00000KT 10SM CLR 05/05 A3020 RMK AO2
KHHW - Hugo, Oklahoma
Updated: Sat, Nov-Sat-2020 3:55am
Clear
Clear
 Wind from N
Wind: N 6 mph , 9 km/h
Temperature: 41°F , 5°C
Wind Chill: 37°F , 3°C
Dew Point: 37°F , 3°C
Humidity: 87%
Barometer: 30.21 inHg , 1023 hPa
Clouds: Clear
Visibility: 10 miles , 16 km
2020/11/28 09:55 KHHW 280955Z AUTO 36005KT 10SM CLR 05/03 A3021 RMK AO2
 
KDUA - Durant, Oklahoma
Updated: Sat, Nov-Sat-2020 3:55am
Clear
Clear
 Wind from NNE
Wind: NNE 7 mph , 11 km/h
Temperature: 43°F , 6°C
Wind Chill: 39°F , 4°C
Dew Point: 37°F , 3°C
Humidity: 81%
Barometer: 30.22 inHg , 1023.4 hPa
Clouds: Clear
Visibility: 10 miles , 16 km
2020/11/28 09:55 KDUA 280955Z AUTO 02006KT 10SM CLR 06/03 A3022 RMK AO2
KSTJ - St. Joseph, Missouri
Updated: Sat, Nov-Sat-2020 3:53am
Clear
Clear
 Wind from SSE
Wind: SSE 3 mph , 6 km/h
Temperature: 25°F , -4°C
Dew Point: 23°F , -5°C
Humidity: 93%
Barometer: 30.24 inHg , 1024 hPa
Clouds: Clear
Visibility: 9 miles , 14 km
2020/11/28 09:53 KSTJ 280953Z AUTO 16003KT 9SM CLR M04/M05 A3024 RMK AO2 SLP247 T10391050 $
KMCI - Kansas City/Intl, Missouri
Updated: Sat, Nov-Sat-2020 3:53am
Clear
Clear
 Wind from SW
Wind: SW 5 mph , 7 km/h
Temperature: 34°F , 1°C
Wind Chill: 29°F , -2°C
Dew Point: 27°F , -3°C
Humidity: 75%
Barometer: 30.25 inHg , 1024.4 hPa
Clouds: Clear
Visibility: 10 miles , 16 km
2020/11/28 09:53 KMCI 280953Z 22004KT 10SM CLR 01/M03 A3025 RMK AO2 SLP246 T00111033
 
KMKC - Kansas City/Dntn, Missouri
Updated: Sat, Nov-Sat-2020 3:54am
Clear
Clear
 Wind from SW
Wind: SW 3 mph , 6 km/h
Temperature: 30°F , -1°C
Dew Point: 27°F , -3°C
Humidity: 86%
Barometer: 30.26 inHg , 1024.7 hPa
Clouds: Clear
Visibility: 10 miles , 16 km
2020/11/28 09:54 KMKC 280954Z 22003KT 10SM CLR M01/M03 A3026 RMK AO2 SLP251 T10061033
KCDJ - Chillicothe, Missouri
Updated: Sat, Nov-Sat-2020 3:52am

 Wind from calm
Wind: Calm
Temperature: 28°F , -2°C
Dew Point: 27°F , -3°C
Humidity: 93%
Barometer: 30.24 inHg , 1024 hPa
2020/11/28 09:52 KCDJ 280952Z AUTO 00000KT M02/M03 A3024 RMK AO1 SLP248 T10171028
KIRK - Kirksville, Missouri
Updated: Sat, Nov-Sat-2020 3:55am
Clear
Clear
 Wind from WSW
Wind: WSW 6 mph , 9 km/h
Temperature: 34°F , 1°C
Wind Chill: 29°F , -2°C
Dew Point: 27°F , -3°C
Humidity: 75%
Barometer: 30.22 inHg , 1023.4 hPa
Clouds: Clear
Visibility: 10 miles , 16 km
2020/11/28 09:55 KIRK 280955Z AUTO 24005KT 10SM CLR 01/M03 A3022 RMK AO2 SLP242 T00111028
 
KSZL - Whiteman Afb, Missouri
Updated: Sat, Nov-Sat-2020 3:56am
Clear
Clear
 Wind from WSW
Wind: WSW 3 mph , 6 km/h
Temperature: 30°F , -1°C
Dew Point: 25°F , -4°C
Humidity: 80%
Barometer: 30.22 inHg , 1023.4 hPa
Clouds: Clear
Visibility: 10 miles , 16 km
2020/11/28 09:56 KSZL 280956Z AUTO 25003KT 10SM CLR M01/M04 A3022 RMK AO2 SLP242 T10091036 $
KDMO - Sedalia, Missouri
Updated: Sat, Nov-Sat-2020 3:53am
Clear
Clear
 Wind from WSW
Wind: WSW 7 mph , 11 km/h
Temperature: 34°F , 1°C
Wind Chill: 28°F , -2°C
Dew Point: 27°F , -3°C
Humidity: 75%
Barometer: 30.26 inHg , 1024.7 hPa
Clouds: Clear
Visibility: 10 miles , 16 km
2020/11/28 09:53 KDMO 280953Z AUTO 24006KT 10SM CLR 01/M03 A3026 RMK AO2 SLP253 T00111033
KGLY - Clinton, Missouri
Updated: Sat, Nov-Sat-2020 3:55am
Clear
Clear
 Wind from calm
Wind: Calm
Temperature: 25°F , -4°C
Dew Point: 25°F , -4°C
Humidity: 100%
Barometer: 30.26 inHg , 1024.7 hPa
Clouds: Clear
Visibility: 9 miles , 14 km
2020/11/28 09:55 KGLY 280955Z AUTO 00000KT 9SM CLR M04/M04 A3026 RMK AO2
 
KCOU - Columbia, Missouri
Updated: Sat, Nov-Sat-2020 3:54am
Clear
Clear
 Wind from W
Wind: W 6 mph , 9 km/h
Temperature: 36°F , 2°C
Wind Chill: 31°F , -1°C
Dew Point: 28°F , -2°C
Humidity: 75%
Barometer: 30.24 inHg , 1024 hPa
Clouds: Clear
Visibility: 10 miles , 16 km
2020/11/28 09:54 KCOU 280954Z AUTO 27005KT 10SM CLR 02/M02 A3024 RMK AO2 SLP245 T00221022
KJEF - Jefferson City, Missouri
Updated: Sat, Nov-Sat-2020 3:53am
Clear
Clear
 Wind from calm
Wind: Calm
Temperature: 30°F , -1°C
Dew Point: 27°F , -3°C
Humidity: 86%
Barometer: 30.27 inHg , 1025.1 hPa
Clouds: Clear
Visibility: 10 miles , 16 km
2020/11/28 09:53 KJEF 280953Z AUTO 00000KT 10SM CLR M01/M03 A3027 RMK AO2 SLP243 T10111033
KVIH - Vichy/Rolla, Missouri
Updated: Sat, Nov-Sat-2020 3:53am
Clear
Clear
 Wind from NW
Wind: NW 3 mph , 6 km/h
Temperature: 36°F , 2°C
Dew Point: 28°F , -2°C
Humidity: 75%
Barometer: 30.24 inHg , 1024 hPa
Clouds: Clear
Visibility: 10 miles , 16 km
2020/11/28 09:53 KVIH 280953Z AUTO 32003KT 10SM CLR 02/M02 A3024 RMK AO2 SLP245 T00171022
 
KTBN - Fort Leonard Wood, Missouri
Updated: Sat, Nov-Sat-2020 3:56am
Clear
Clear
 Wind from SW
Wind: SW 3 mph , 6 km/h
Temperature: 30°F , -1°C
Dew Point: 27°F , -3°C
Humidity: 86%
Barometer: 30.24 inHg , 1024 hPa
Clouds: Clear
Visibility: 10 miles , 16 km
2020/11/28 09:56 KTBN 280956Z AUTO 23003KT 10SM CLR M01/M03 A3024 RMK AO2 SLP249 T10131026
KJLN - Joplin, Missouri
Updated: Sat, Nov-Sat-2020 3:53am
Clear
Clear
 Wind from calm
Wind: Calm
Temperature: 28°F , -2°C
Dew Point: 27°F , -3°C
Humidity: 93%
Barometer: 30.28 inHg , 1025.4 hPa
Clouds: Clear
Visibility: 7 miles , 11 km
2020/11/28 09:53 KJLN 280953Z AUTO 00000KT 7SM CLR M02/M03 A3028 RMK AO2 SLP257 I1001 T10221033 $
KHFJ - Monett, Missouri
Updated: Sat, Nov-Sat-2020 3:55am
Clear
Clear
 Wind from NE
Wind: NE 5 mph , 7 km/h
Temperature: 32°F , 0°C
Wind Chill: 27°F , -3°C
Dew Point: 30°F , -1°C
Humidity: 93%
Barometer: 30.25 inHg , 1024.4 hPa
Clouds: Clear
Visibility: 10 miles , 16 km
2020/11/28 09:55 KHFJ 280955Z AUTO 04004KT 10SM CLR 00/M01 A3025 RMK AO2
 
KSGF - Springfield, Missouri
Updated: Sat, Nov-Sat-2020 3:52am
Clear
Clear
 Wind from calm
Wind: Calm
Temperature: 28°F , -2°C
Dew Point: 25°F , -4°C
Humidity: 86%
Barometer: 30.25 inHg , 1024.4 hPa
Clouds: Clear
Visibility: 10 miles , 16 km
2020/11/28 09:52 KSGF 280952Z 00000KT 10SM CLR M02/M04 A3025 RMK AO2 SLP250 T10221039
KBBG - Branson, Missouri
Updated: Sat, Nov-Sat-2020 3:55am
Clear
Clear
 Wind from calm
Wind: Calm
Temperature: 34°F , 1°C
Dew Point: 28°F , -2°C
Humidity: 81%
Barometer: 30.25 inHg , 1024.4 hPa
Clouds: Clear
Visibility: 10 miles , 16 km
2020/11/28 09:55 KBBG 280955Z AUTO 00000KT 10SM CLR 01/M02 A3025 RMK AO2
KUNO - West Plains, Missouri
Updated: Sat, Nov-Sat-2020 3:53am
Clear
Clear
 Wind from NNW
Wind: NNW 5 mph , 7 km/h
Temperature: 36°F , 2°C
Wind Chill: 32°F , 0°C
Dew Point: 28°F , -2°C
Humidity: 75%
Barometer: 30.24 inHg , 1024 hPa
Clouds: Clear
Visibility: 10 miles , 16 km
2020/11/28 09:53 KUNO 280953Z AUTO 34004KT 10SM CLR 02/M02 A3024 RMK AO2 SLP243 T00171022
 
KFAM - Farmington, Missouri
Updated: Sat, Nov-Sat-2020 3:56am
Clear
Clear
 Wind from calm
Wind: Calm
Temperature: 28°F , -2°C
Dew Point: 28°F , -2°C
Humidity: 100%
Barometer: 30.24 inHg , 1024 hPa
Clouds: Clear
Visibility: 10 miles , 16 km
2020/11/28 09:56 KFAM 280956Z AUTO 00000KT 10SM CLR M02/M02 A3024 RMK AO2 SLP257 T10171022 FZRANO
KCGI - Cape Girardeau, Missouri
Updated: Sat, Nov-Sat-2020 3:53am
Clear
Clear
 Wind from calm
Wind: Calm
Temperature: 36°F , 2°C
Dew Point: 30°F , -1°C
Humidity: 81%
Barometer: 30.24 inHg , 1024 hPa
Clouds: Clear
Visibility: 10 miles , 16 km
2020/11/28 09:53 KCGI 280953Z AUTO 00000KT 10SM CLR 02/M01 A3024 RMK AO2 SLP242 T00171006
KSTL - St. Louis, Missouri
Updated: Sat, Nov-Sat-2020 3:51am
Clear
Clear
 Wind from calm
Wind: Calm
Temperature: 32°F , 0°C
Dew Point: 28°F , -2°C
Humidity: 87%
Barometer: 30.25 inHg , 1024.4 hPa
Clouds: Clear
Visibility: 10 miles , 16 km
2020/11/28 09:51 KSTL 280951Z 00000KT 10SM CLR 00/M02 A3025 RMK AO2 SLP248 T00001022
 
KPOF - Popular Bluff, Missouri
Updated: Sat, Nov-Sat-2020 3:53am
Clear
Clear
 Wind from calm
Wind: Calm
Temperature: 34°F , 1°C
Dew Point: 30°F , -1°C
Humidity: 87%
Barometer: 30.25 inHg , 1024.4 hPa
Clouds: Clear
Visibility: 10 miles , 16 km
2020/11/28 09:53 KPOF 280953Z AUTO 00000KT 10SM CLR 01/M01 A3025 RMK AO2 SLP245 T00111011
KSET - St. Charles, Missouri
Updated: Sat, Nov-Sat-2020 3:54am
Clear
Clear
 Wind from calm
Wind: Calm
Temperature: 30°F , -1°C
Dew Point: 28°F , -2°C
Humidity: 93%
Barometer: 30.25 inHg , 1024.4 hPa
Clouds: Clear
Visibility: 7 miles , 11 km
2020/11/28 09:54 KSET 280954Z AUTO 00000KT 7SM CLR M01/M02 A3025 RMK AO2 SLP244 I1000 T10061017
KGLD - Goodland, Kansas
Updated: Sat, Nov-Sat-2020 3:53am
Clear
Clear
 Wind from SW
Wind: SW 12 mph , 19 km/h
Temperature: 28°F , -2°C
Wind Chill: 18°F , -8°C
Dew Point: 19°F , -7°C
Humidity: 69%
Barometer: 30.18 inHg , 1022 hPa
Clouds: Clear
Visibility: 10 miles , 16 km
2020/11/28 09:53 KGLD 280953Z AUTO 23010KT 10SM CLR M02/M07 A3018 RMK AO2 SLP227 T10221067
 
KHLC - Hill City, Kansas
Updated: Sat, Nov-Sat-2020 3:53am
Clear
Clear
 Wind from WSW
Wind: WSW 6 mph , 9 km/h
Temperature: 27°F , -3°C
Wind Chill: 20°F , -7°C
Dew Point: 21°F , -6°C
Humidity: 80%
Barometer: 30.23 inHg , 1023.7 hPa
Clouds: Clear
Visibility: 10 miles , 16 km
2020/11/28 09:53 KHLC 280953Z AUTO 25005KT 10SM CLR M03/M06 A3023 RMK AO2 SLP247 T10281061
KHYS - Hays Muni, Kansas
Updated: Sat, Nov-Sat-2020 3:56am
Clear
Clear
 Wind from W
Wind: W 6 mph , 9 km/h
Temperature: 28°F , -2°C
Wind Chill: 21°F , -6°C
Dew Point: 25°F , -4°C
Humidity: 86%
Barometer: 30.25 inHg , 1024.4 hPa
Clouds: Clear
Visibility: 10 miles , 16 km
2020/11/28 09:56 KHYS 280956Z AUTO 27005KT 10SM CLR M02/M04 A3025 RMK AO2 SLP256 T10171039 FZRANO
KRSL - Russell, Kansas
Updated: Sat, Nov-Sat-2020 3:53am
Clear
Clear
 Wind from SSW
Wind: SSW 10 mph , 17 km/h
Temperature: 28°F , -2°C
Wind Chill: 19°F , -7°C
Dew Point: 25°F , -4°C
Humidity: 86%
Barometer: 30.24 inHg , 1024 hPa
Clouds: Clear
Visibility: 10 miles , 16 km
2020/11/28 09:53 KRSL 280953Z AUTO 21009KT 10SM CLR M02/M04 A3024 RMK AO2 SLP251 T10171044
 
KGBD - Great Bend, Kansas
Updated: Sat, Nov-Sat-2020 3:56am
Clear
Clear
 Wind from SSW
Wind: SSW 7 mph , 11 km/h
Temperature: 28°F , -2°C
Wind Chill: 21°F , -6°C
Dew Point: 25°F , -4°C
Humidity: 86%
Barometer: 30.26 inHg , 1024.7 hPa
Clouds: Clear
Visibility: 10 miles , 16 km
2020/11/28 09:56 KGBD 280956Z AUTO 21006KT 10SM CLR M02/M04 A3026 RMK AO2 SLP259 T10221039 FZRANO
KDDC - Dodge City, Kansas
Updated: Sat, Nov-Sat-2020 3:52am
Clear
Clear
 Wind from SW
Wind: SW 6 mph , 9 km/h
Temperature: 34°F , 1°C
Wind Chill: 29°F , -2°C
Dew Point: 27°F , -3°C
Humidity: 75%
Barometer: 30.24 inHg , 1024 hPa
Clouds: Clear
Visibility: 10 miles , 16 km
2020/11/28 09:52 KDDC 280952Z AUTO 22005KT 10SM CLR 01/M03 A3024 RMK AO2 SLP247 T00061033
KPTT - Pratt Indust, Kansas
Updated: Sat, Nov-Sat-2020 3:55am
Clear
Clear
 Wind from WSW
Wind: WSW 5 mph , 7 km/h
Temperature: 30°F , -1°C
Wind Chill: 25°F , -4°C
Dew Point: 27°F , -3°C
Humidity: 86%
Barometer: 30.27 inHg , 1025.1 hPa
Clouds: Clear
Visibility: 10 miles , 16 km
2020/11/28 09:55 KPTT 280955Z AUTO 24004KT 10SM CLR M01/M03 A3027 RMK AO2 T10071031
 
KSLN - Salina, Kansas
Updated: Sat, Nov-Sat-2020 3:53am
Clear
Clear
 Wind from SSW
Wind: SSW 8 mph , 13 km/h
Temperature: 30°F , -1°C
Wind Chill: 22°F , -6°C
Dew Point: 27°F , -3°C
Humidity: 86%
Barometer: 30.27 inHg , 1025.1 hPa
Clouds: Clear
Visibility: 10 miles , 16 km
2020/11/28 09:53 KSLN 280953Z AUTO 20007KT 10SM CLR M01/M03 A3027 RMK AO2 SLP257 T10111033
KHUT - Hutchinson, Kansas
Updated: Sat, Nov-Sat-2020 3:52am
Clear
Clear
 Wind from calm
Wind: Calm
Temperature: 25°F , -4°C
Dew Point: 21°F , -6°C
Humidity: 86%
Barometer: 30.27 inHg , 1025.1 hPa
Clouds: Clear
Visibility: 10 miles , 16 km
2020/11/28 09:52 KHUT 280952Z AUTO 00000KT 10SM CLR M04/M06 A3027 RMK AO2 SLP252 T10391056
KGCK - Garden City, Kansas
Updated: Sat, Nov-Sat-2020 3:54am
Clear
Clear
 Wind from WNW
Wind: WNW 7 mph , 11 km/h
Temperature: 27°F , -3°C
Wind Chill: 19°F , -7°C
Dew Point: 23°F , -5°C
Humidity: 86%
Barometer: 30.23 inHg , 1023.7 hPa
Clouds: Clear
Visibility: 10 miles , 16 km
2020/11/28 09:54 KGCK 280954Z AUTO 30006KT 10SM CLR M03/M05 A3023 RMK AO2 SLP249 T10331050
 
KP28 - Medicine Lodge, Kansas
Updated: Sat, Nov-Sat-2020 3:56am

 Wind from N
Wind: N 3 mph , 6 km/h
Temperature: 27°F , -3°C
Dew Point: 21°F , -6°C
Humidity: 80%
Barometer: 30.28 inHg , 1025.4 hPa
2020/11/28 09:56 KP28 280956Z AUTO 36003KT M03/M06 A3028 RMK AO1 SLP261 T10331061
KICT - Wichita, Kansas
Updated: Sat, Nov-Sat-2020 3:53am
Clear
Clear
 Wind from W
Wind: W 3 mph , 6 km/h
Temperature: 27°F , -3°C
Dew Point: 25°F , -4°C
Humidity: 93%
Barometer: 30.28 inHg , 1025.4 hPa
Clouds: Clear
Visibility: 10 miles , 16 km
2020/11/28 09:53 KICT 280953Z 26003KT 10SM CLR M03/M04 A3028 RMK AO2 SLP259 T10281044
KRSL - Russell, Kansas
Updated: Sat, Nov-Sat-2020 3:53am
Clear
Clear
 Wind from SSW
Wind: SSW 10 mph , 17 km/h
Temperature: 28°F , -2°C
Wind Chill: 19°F , -7°C
Dew Point: 25°F , -4°C
Humidity: 86%
Barometer: 30.24 inHg , 1024 hPa
Clouds: Clear
Visibility: 10 miles , 16 km
2020/11/28 09:53 KRSL 280953Z AUTO 21009KT 10SM CLR M02/M04 A3024 RMK AO2 SLP251 T10171044
 
KMHK - Manhattan, Kansas
Updated: Sat, Nov-Sat-2020 3:52am
Clear
Clear
 Wind from calm
Wind: Calm
Temperature: 25°F , -4°C
Dew Point: 19°F , -7°C
Humidity: 80%
Barometer: 30.27 inHg , 1025.1 hPa
Clouds: Clear
Visibility: 10 miles , 16 km
2020/11/28 09:52 KMHK 280952Z AUTO 00000KT 10SM CLR M04/M07 A3027 RMK AO2 SLP257 I1000 T10441067
KEMP - Emporia, Kansas
Updated: Sat, Nov-Sat-2020 3:53am
Clear
Clear
 Wind from SSW
Wind: SSW 7 mph , 11 km/h
Temperature: 30°F , -1°C
Wind Chill: 23°F , -5°C
Dew Point: 25°F , -4°C
Humidity: 80%
Barometer: 30.27 inHg , 1025.1 hPa
Clouds: Clear
Visibility: 10 miles , 16 km
2020/11/28 09:53 KEMP 280953Z AUTO 20006KT 10SM CLR M01/M04 A3027 RMK AO2 SLP258 T10111044 $
KTOP - Topeka, Kansas
Updated: Sat, Nov-Sat-2020 3:53am
Clear
Clear
 Wind from calm
Wind: Calm
Temperature: 27°F , -3°C
Dew Point: 23°F , -5°C
Humidity: 86%
Barometer: 30.26 inHg , 1024.7 hPa
Clouds: Clear
Visibility: 9 miles , 14 km
2020/11/28 09:53 KTOP 280953Z AUTO 00000KT 9SM CLR M03/M05 A3026 RMK AO2 SLP253 I1001 T10281050 $
 
KCNU - Chanute, Kansas
Updated: Sat, Nov-Sat-2020 3:52am
Clear
Clear
 Wind from calm
Wind: Calm
Temperature: 27°F , -3°C
Dew Point: 23°F , -5°C
Humidity: 86%
Barometer: 30.29 inHg , 1025.7 hPa
Clouds: Clear
Visibility: 10 miles , 16 km
2020/11/28 09:52 KCNU 280952Z AUTO 00000KT 10SM CLR M03/M05 A3029 RMK AO2 SLP260 T10281050
KLWC - Lawrence, Kansas
Updated: Sat, Nov-Sat-2020 3:52am
Clear
Clear
 Wind from calm
Wind: Calm
Temperature: 25°F , -4°C
Dew Point: 21°F , -6°C
Humidity: 86%
Barometer: 30.27 inHg , 1025.1 hPa
Clouds: Clear
Visibility: 10 miles , 16 km
2020/11/28 09:52 KLWC 280952Z AUTO 00000KT 10SM CLR M04/M06 A3027 RMK AO1 SLP254 I1000 T10441056
KPPF - Parsons, Kansas
Updated: Tue, Nov-Tue-2020 10:52am
NOT Current

 
Barometer: 29.91 inHg , 1012.9 hPa
2020/11/24 16:52 KPPF 241652Z AUTO A2991 RMK AO2 SLPNO PWINO FZRANO $
 
KIDP - Independence, Kansas
Updated: Sat, Nov-Sat-2020 3:55am
Clear
Clear
 Wind from calm
Wind: Calm
Temperature: 27°F , -3°C
Dew Point: 25°F , -4°C
Humidity: 93%
Barometer: 30.30 inHg , 1026.1 hPa
Clouds: Clear
Visibility: 10 miles , 16 km
2020/11/28 09:55 KIDP 280955Z AUTO 00000KT 10SM CLR M03/M04 A3030 RMK AO2 T10321039
KOJC - Olathe, Kansas
Updated: Sat, Nov-Sat-2020 3:53am
Clear
Clear
 Wind from WSW
Wind: WSW 3 mph , 6 km/h
Temperature: 30°F , -1°C
Dew Point: 27°F , -3°C
Humidity: 86%
Barometer: 30.25 inHg , 1024.4 hPa
Clouds: Clear
Visibility: 10 miles , 16 km
2020/11/28 09:53 KOJC 280953Z AUTO 25003KT 10SM CLR M01/M03 A3025 RMK AO2 SLP250 T10061033 $
KCFV - Coffeyville, Kansas
Updated: Sat, Nov-Sat-2020 3:52am
Clear
Clear
 Wind from calm
Wind: Calm
Temperature: 28°F , -2°C
Dew Point: 25°F , -4°C
Humidity: 86%
Barometer: 30.29 inHg , 1025.7 hPa
Clouds: Clear
Visibility: 10 miles , 16 km
2020/11/28 09:52 KCFV 280952Z AUTO 00000KT 10SM CLR M02/M04 A3029 RMK AO2 SLP262 T10171044 $
 
KPTS - Pittsburg, Kansas
Updated: Sat, Nov-Sat-2020 4:15am
Clear
Clear
 Wind from calm
Wind: Calm
Temperature: 25°F , -4°C
Dew Point: 18°F , -8°C
Humidity: 74%
Barometer: 30.27 inHg , 1025.1 hPa
Clouds: Clear
Visibility: 10 miles , 16 km
2020/11/28 10:15 KPTS 281015Z AUTO 00000KT 10SM CLR M04/M08 A3027 RMK AO2 T10361080
KLGA - New York City, New York
Updated: Sat, Nov-Sat-2020 3:51am
Mostly cloudy
Mostly cloudy
 Wind from NW
Wind: NW 6 mph , 9 km/h
Temperature: 52°F , 11°C
Dew Point: 37°F , 3°C
Humidity: 58%
Barometer: 29.96 inHg , 1014.6 hPa
Clouds: Mostly cloudy
Visibility: 10 miles , 16 km
Cloud details: Mostly cloudy 6500 ft
2020/11/28 09:51 KLGA 280951Z 31005KT 10SM BKN065 11/03 A2996 RMK AO2 SLP144 T01060033
KCLT - Charlotte, North Carolina
Updated: Sat, Nov-Sat-2020 3:52am
Light rain, Overcast
Light rain, Overcast
 Wind from WNW
Wind: WNW 5 mph , 7 km/h
Temperature: 55°F , 13°C
Dew Point: 52°F , 11°C
Humidity: 88%
Barometer: 30.03 inHg , 1016.9 hPa
Summary: Light rain
Clouds: Overcast
Visibility: 8 miles , 13 km
Cloud details: Partly cloudy 7000 ft
Overcast 9000 ft
2020/11/28 09:52 KCLT 280952Z 29004KT 8SM -RA SCT070 OVC090 13/11 A3003 RMK AO2 RAB49 SLP166 P0000 T01280111 $
 
KATL - Atlanta, Georgia
Updated: Sat, Nov-Sat-2020 3:52am
Mostly cloudy
Mostly cloudy
 Wind from NNW
Wind: NNW 5 mph , 7 km/h
Temperature: 54°F , 12°C
Dew Point: 48°F , 9°C
Humidity: 82%
Barometer: 30.04 inHg , 1017.3 hPa
Clouds: Mostly cloudy
Visibility: 10 miles , 16 km
Cloud details: Few Clouds 2500 ft
Mostly cloudy 4200 ft
2020/11/28 09:52 KATL 280952Z 34004KT 10SM FEW025 BKN042 12/09 A3004 RMK AO2 SLP168 T01220094
KORL - Orlando, Florida
Updated: Sat, Nov-Sat-2020 3:53am
Clear
Clear
 Wind from calm
Wind: Calm
Temperature: 66°F , 19°C
Dew Point: 64°F , 18°C
Humidity: 94%
Barometer: 30.03 inHg , 1016.9 hPa
Clouds: Clear
Visibility: 10 miles , 16 km
2020/11/28 09:53 KORL 280953Z AUTO 00000KT 10SM CLR 19/18 A3003 RMK AO2 SLP170 T01940183
KMSP - Minneapolis, Minnesota
Updated: Sat, Nov-Sat-2020 3:53am
Clear
Clear
 Wind from SW
Wind: SW 8 mph , 13 km/h
Temperature: 34°F , 1°C
Wind Chill: 27°F , -3°C
Dew Point: 25°F , -4°C
Humidity: 70%
Barometer: 29.97 inHg , 1014.9 hPa
Clouds: Clear
Visibility: 10 miles , 16 km
2020/11/28 09:53 KMSP 280953Z 23007KT 10SM CLR 01/M04 A2997 RMK AO2 SLP159 T00111039
 
KORD - Chicago, Illinois
Updated: Sat, Nov-Sat-2020 3:51am
Clear
Clear
 Wind from SSW
Wind: SSW 3 mph , 6 km/h
Temperature: 30°F , -1°C
Dew Point: 23°F , -5°C
Humidity: 75%
Barometer: 30.15 inHg , 1021 hPa
Clouds: Clear
Visibility: 10 miles , 16 km
2020/11/28 09:51 KORD 280951Z 21003KT 10SM CLR M01/M05 A3015 RMK AO2 SLP216 T10111050
KDFW - Dallas/Ft Worth, Texas
Updated: Sat, Nov-Sat-2020 3:53am
Overcast
Overcast
 Wind from NNE
Wind: NNE 9 mph , 15 km/h
Temperature: 48°F , 9°C
Wind Chill: 44°F , 7°C
Dew Point: 39°F , 4°C
Humidity: 71%
Barometer: 30.16 inHg , 1021.3 hPa
Clouds: Overcast
Visibility: 10 miles , 16 km
Cloud details: Mostly cloudy 2700 ft
Overcast 4000 ft
2020/11/28 09:53 KDFW 280953Z 02008KT 10SM BKN027 OVC040 09/04 A3016 RMK AO2 SLP209 T00940044
KHOU - Houston, Texas
Updated: Sat, Nov-Sat-2020 3:53am
Rain, Overcast
Rain, Overcast
 Wind from E
Wind: E 12 mph , 19 km/h
Temperature: 64°F , 18°C
Dew Point: 63°F , 17°C
Humidity: 94%
Barometer: 30.01 inHg , 1016.3 hPa
Summary: Rain
Clouds: Overcast
Visibility: 10 miles , 16 km
Cloud details: Few Clouds 1500 ft
Mostly cloudy 8000 ft
Overcast 11000 ft
2020/11/28 09:53 KHOU 280953Z 09010KT 10SM RA FEW015 BKN080 OVC110 18/17 A3001 RMK AO2 SLP167 P0004 T01830167
 
KDEN - Denver, Colorado
Updated: Sat, Nov-Sat-2020 3:53am
Clear
Clear
 Wind from SW
Wind: SW 12 mph , 19 km/h
Temperature: 30°F , -1°C
Wind Chill: 20°F , -7°C
Dew Point: 16°F , -9°C
Humidity: 55%
Barometer: 30.14 inHg , 1020.7 hPa
Clouds: Clear
Visibility: 10 miles , 16 km
2020/11/28 09:53 KDEN 280953Z 22010KT 10SM CLR M01/M09 A3014 RMK AO2 SLP213 T10111089
KSFO - San Francisco, California
Updated: Sat, Nov-Sat-2020 3:56am
Clear
Clear
 Wind from SSW
Wind: SSW 3 mph , 6 km/h
Temperature: 45°F , 7°C
Dew Point: 34°F , 1°C
Humidity: 66%
Barometer: 30.24 inHg , 1024 hPa
Clouds: Clear
Visibility: 10 miles , 16 km
2020/11/28 09:56 KSFO 280956Z 20003KT 10SM CLR 07/01 A3024 RMK AO2 SLP239 T00670006
KLAX - Los Angeles, California
Updated: Sat, Nov-Sat-2020 3:53am
Clear
Clear
 Wind from calm
Wind: Calm
Temperature: 52°F , 11°C
Dew Point: 21°F , -6°C
Humidity: 30%
Barometer: 30.17 inHg , 1021.7 hPa
Clouds: Clear
Visibility: 10 miles , 16 km
2020/11/28 09:53 KLAX 280953Z 00000KT 10SM CLR 11/M06 A3017 RMK AO2 SLP216 T01111061